Annapolis Junction, Maryland
Current Conditions -  °F | °C
As of 11:30 PM on Wednesday 26 Nov 2014 (Local Time) from KFME Reporting Station
Overcast Overcast  
Wind Chill: 34°   Ceiling: 12000
Heat Index: 34°   Visibility: 10mi
Dew Point: 32°   Wind: 3mph
Humidity: 93%   Direction: 260°W
Pressure: 30.02"   Gusts: NA
Location:  39.13°N, 76.8°W
Report Text: KFME 270430Z AUTO 26003KT 10SM SCT095 OVC120 01/00 A3002 RMK AO1
Loading
Personal Weather Stations






























Interactive Weather Map New forecast layout! Learn more

10-Day Weather Forecast

Advertisements
Track Severe Weather on mobile